createdAt,value
2022-11-28T00:00:03.263Z,1005.39
2022-11-28T00:01:03.270Z,1005.37
2022-11-28T00:02:03.309Z,1005.32
2022-11-28T00:03:03.399Z,1005.32
2022-11-28T00:04:03.217Z,1005.28
2022-11-28T00:05:03.235Z,1005.26
2022-11-28T00:06:03.219Z,1005.21
2022-11-28T00:07:03.207Z,1005.18
2022-11-28T00:08:03.235Z,1005.14
2022-11-28T00:09:03.204Z,1005.11
2022-11-28T00:10:03.152Z,1005.09
2022-11-28T00:11:03.168Z,1005.07
2022-11-28T00:12:03.132Z,1005.07
2022-11-28T00:13:03.151Z,1005.08
2022-11-28T00:14:03.144Z,1005.05
2022-11-28T00:15:03.127Z,1005.03
2022-11-28T00:16:03.151Z,1005.00
2022-11-28T00:17:03.110Z,1004.98
2022-11-28T00:18:03.069Z,1004.99
2022-11-28T00:19:03.085Z,1005.00
2022-11-28T00:20:03.058Z,1004.99
2022-11-28T00:21:03.065Z,1005.01
2022-11-28T00:22:03.031Z,1004.98
2022-11-28T00:23:03.040Z,1004.99
2022-11-28T00:24:03.016Z,1004.98
2022-11-28T00:25:03.037Z,1004.97
2022-11-28T00:26:02.983Z,1004.92
2022-11-28T00:27:03.003Z,1004.88
2022-11-28T00:28:02.965Z,1004.88
2022-11-28T00:29:03.007Z,1004.90
2022-11-28T00:30:02.950Z,1004.89
2022-11-28T00:31:02.967Z,1004.87
2022-11-28T00:32:03.013Z,1004.88
2022-11-28T00:33:02.942Z,1004.87
2022-11-28T00:34:02.909Z,1004.85
2022-11-28T00:35:02.932Z,1004.84
2022-11-28T00:36:02.918Z,1004.82
2022-11-28T00:37:02.896Z,1004.83
2022-11-28T00:38:02.857Z,1004.83
2022-11-28T00:39:02.874Z,1004.82
2022-11-28T00:40:02.837Z,1004.81
2022-11-28T00:41:02.857Z,1004.84
2022-11-28T00:42:02.830Z,1004.82
2022-11-28T00:43:02.835Z,1004.82
2022-11-28T00:44:02.797Z,1004.84
2022-11-28T00:45:02.805Z,1004.84
2022-11-28T00:46:02.839Z,1004.83
2022-11-28T00:47:02.809Z,1004.81
2022-11-28T00:48:02.752Z,1004.78
2022-11-28T00:49:02.763Z,1004.76
2022-11-28T00:50:02.739Z,1004.71
2022-11-28T00:51:02.744Z,1004.70
2022-11-28T00:52:02.714Z,1004.68
2022-11-28T00:53:02.771Z,1004.66
2022-11-28T00:54:02.692Z,1004.67
2022-11-28T00:55:02.704Z,1004.64
2022-11-28T00:56:02.669Z,1004.63
2022-11-28T00:57:02.681Z,1004.60
2022-11-28T00:58:02.661Z,1004.58
2022-11-28T00:59:02.650Z,1004.57
2022-11-28T01:00:02.658Z,1004.54
2022-11-28T01:01:02.681Z,1004.54
2022-11-28T01:02:02.725Z,1004.51
2022-11-28T01:03:02.593Z,1004.50
2022-11-28T01:04:02.619Z,1004.51
2022-11-28T01:05:02.580Z,1004.51
2022-11-28T01:06:02.599Z,1004.46
2022-11-28T01:07:02.550Z,1004.47
2022-11-28T01:08:02.587Z,1004.43
2022-11-28T01:09:02.559Z,1004.39
2022-11-28T01:10:02.548Z,1004.37
2022-11-28T01:11:02.506Z,1004.40
2022-11-28T01:12:02.521Z,1004.39
2022-11-28T01:13:02.488Z,1004.39
2022-11-28T01:14:02.515Z,1004.34
2022-11-28T01:15:02.478Z,1004.38
2022-11-28T01:16:02.675Z,1004.37
2022-11-28T01:17:02.445Z,1004.37
2022-11-28T01:18:02.463Z,1004.41
2022-11-28T01:19:02.426Z,1004.36
2022-11-28T01:20:02.460Z,1004.40
2022-11-28T01:21:02.410Z,1004.39
2022-11-28T01:22:02.417Z,1004.39
2022-11-28T01:23:02.403Z,1004.41
2022-11-28T01:24:02.396Z,1004.42
2022-11-28T01:25:02.365Z,1004.39
2022-11-28T01:26:02.389Z,1004.41
2022-11-28T01:27:02.353Z,1004.39
2022-11-28T01:28:02.358Z,1004.40
2022-11-28T01:29:02.322Z,1004.39
2022-11-28T01:30:02.355Z,1004.39
2022-11-28T01:31:02.409Z,1004.36
2022-11-28T01:32:02.440Z,1004.39
2022-11-28T01:33:02.288Z,1004.35
2022-11-28T01:34:02.302Z,1004.34
2022-11-28T01:35:02.260Z,1004.33
2022-11-28T01:36:02.270Z,1004.30
2022-11-28T01:37:02.262Z,1004.26
2022-11-28T01:38:02.252Z,1004.23
2022-11-28T01:39:02.242Z,1004.20
2022-11-28T01:40:02.229Z,1004.20
2022-11-28T01:41:02.200Z,1004.18
2022-11-28T01:42:02.218Z,1004.15
2022-11-28T01:43:02.177Z,1004.12
2022-11-28T01:44:02.187Z,1004.13
2022-11-28T01:45:02.158Z,1004.08
2022-11-28T01:46:02.168Z,1004.10
2022-11-28T01:47:02.164Z,1004.08
2022-11-28T01:48:02.153Z,1004.06
2022-11-28T01:49:02.109Z,1004.04
2022-11-28T01:50:02.123Z,1004.03
2022-11-28T01:51:02.105Z,1004.01
2022-11-28T01:52:02.112Z,1004.00
2022-11-28T01:53:02.097Z,1003.99
2022-11-28T01:54:02.078Z,1004.01
2022-11-28T01:55:02.048Z,1004.00
2022-11-28T01:56:02.063Z,1003.99
2022-11-28T01:57:02.025Z,1003.97
2022-11-28T01:58:02.044Z,1003.96
2022-11-28T01:59:02.032Z,1003.94
2022-11-28T02:00:02.021Z,1003.94
2022-11-28T02:01:02.041Z,1003.92
2022-11-28T02:02:02.040Z,1003.92
2022-11-28T02:03:01.981Z,1003.93
2022-11-28T02:04:01.994Z,1003.91
2022-11-28T02:05:01.941Z,1003.91
2022-11-28T02:06:01.953Z,1003.91
2022-11-28T02:07:01.916Z,1003.92
2022-11-28T02:08:01.960Z,1003.93
2022-11-28T02:09:01.905Z,1003.91
2022-11-28T02:10:01.933Z,1003.91
2022-11-28T02:11:01.898Z,1003.90
2022-11-28T02:12:01.888Z,1003.90
2022-11-28T02:13:01.864Z,1003.90
2022-11-28T02:14:01.866Z,1003.92
2022-11-28T02:15:01.870Z,1003.93
2022-11-28T02:16:01.947Z,1003.93
2022-11-28T02:17:01.813Z,1003.93
2022-11-28T02:18:01.832Z,1003.92
2022-11-28T02:19:01.798Z,1003.91
2022-11-28T02:20:01.814Z,1003.89
2022-11-28T02:21:01.784Z,1003.86
2022-11-28T02:22:01.783Z,1003.85
2022-11-28T02:23:01.754Z,1003.86
2022-11-28T02:24:01.766Z,1003.85
2022-11-28T02:25:01.731Z,1003.87
2022-11-28T02:26:01.754Z,1003.83
2022-11-28T02:27:01.714Z,1003.83
2022-11-28T02:28:01.735Z,1003.85
2022-11-28T02:29:01.686Z,1003.86
2022-11-28T02:30:01.708Z,1003.86
2022-11-28T02:31:01.702Z,1003.80
2022-11-28T02:32:01.692Z,1003.81
2022-11-28T02:33:01.653Z,1003.84
2022-11-28T02:34:01.661Z,1003.80
2022-11-28T02:35:01.625Z,1003.81
2022-11-28T02:36:01.638Z,1003.77
2022-11-28T02:37:01.635Z,1003.79
2022-11-28T02:38:01.618Z,1003.79
2022-11-28T02:39:01.578Z,1003.75
2022-11-28T02:40:01.592Z,1003.76
2022-11-28T02:41:01.564Z,1003.79
2022-11-28T02:42:01.578Z,1003.80
2022-11-28T02:43:01.551Z,1003.81
2022-11-28T02:44:04.022Z,1003.82
2022-11-28T02:45:01.536Z,1003.79
2022-11-28T02:46:01.533Z,1003.78
2022-11-28T02:47:01.595Z,1003.77
2022-11-28T02:48:01.523Z,1003.79
2022-11-28T02:49:01.504Z,1003.76
2022-11-28T02:50:01.498Z,1003.75
2022-11-28T02:51:01.458Z,1003.75
2022-11-28T02:52:01.478Z,1003.73
2022-11-28T02:53:01.438Z,1003.71
2022-11-28T02:54:01.463Z,1003.69
2022-11-28T02:55:01.413Z,1003.70
2022-11-28T02:56:01.428Z,1003.67
2022-11-28T02:57:01.390Z,1003.65
2022-11-28T02:58:01.404Z,1003.64
2022-11-28T02:59:01.396Z,1003.63
2022-11-28T03:00:01.383Z,1003.60
2022-11-28T03:01:01.446Z,1003.59
2022-11-28T03:02:01.495Z,1003.57
2022-11-28T03:03:01.328Z,1003.57
2022-11-28T03:04:01.340Z,1003.54
2022-11-28T03:05:01.323Z,1003.54
2022-11-28T03:06:01.318Z,1003.54
2022-11-28T03:07:01.286Z,1003.56
2022-11-28T03:08:01.353Z,1003.55
2022-11-28T03:09:01.263Z,1003.54
2022-11-28T03:10:01.302Z,1003.51
2022-11-28T03:11:01.246Z,1003.49
2022-11-28T03:12:01.261Z,1003.49
2022-11-28T03:13:01.225Z,1003.46
2022-11-28T03:14:01.236Z,1003.47
2022-11-28T03:15:01.205Z,1003.45
2022-11-28T03:16:01.277Z,1003.43
2022-11-28T03:17:01.182Z,1003.44
2022-11-28T03:18:01.194Z,1003.42
2022-11-28T03:19:01.160Z,1003.41
2022-11-28T03:20:01.181Z,1003.37
2022-11-28T03:21:01.167Z,1003.33
2022-11-28T03:22:01.147Z,1003.33
2022-11-28T03:23:01.125Z,1003.32
2022-11-28T03:24:01.127Z,1003.33
2022-11-28T03:25:01.102Z,1003.26
2022-11-28T03:26:01.112Z,1003.24
2022-11-28T03:27:01.094Z,1003.20
2022-11-28T03:28:01.089Z,1003.20
2022-11-28T03:29:01.073Z,1003.17
2022-11-28T03:30:01.070Z,1003.18
2022-11-28T03:31:01.067Z,1003.18
2022-11-28T03:32:01.130Z,1003.16
2022-11-28T03:33:01.010Z,1003.12
2022-11-28T03:34:01.044Z,1003.11
2022-11-28T03:35:00.989Z,1003.12
2022-11-28T03:36:01.003Z,1003.13
2022-11-28T03:37:00.970Z,1003.18
2022-11-28T03:38:00.994Z,1003.23
2022-11-28T03:39:00.955Z,1003.27
2022-11-28T03:40:00.967Z,1003.26
2022-11-28T03:41:00.929Z,1003.16
2022-11-28T03:42:00.947Z,1003.09
2022-11-28T03:43:00.946Z,1003.01
2022-11-28T03:44:00.917Z,1002.97
2022-11-28T03:45:00.885Z,1003.01
2022-11-28T03:46:00.898Z,1003.08
2022-11-28T03:47:00.935Z,1003.12
2022-11-28T03:48:00.877Z,1003.12
2022-11-28T03:49:00.878Z,1003.10
2022-11-28T03:50:00.861Z,1003.10
2022-11-28T03:51:00.822Z,1003.11
2022-11-28T03:52:00.841Z,1003.14
2022-11-28T03:53:00.803Z,1003.16
2022-11-28T03:54:00.837Z,1003.15
2022-11-28T03:55:00.779Z,1003.13
2022-11-28T03:56:00.957Z,1003.10
2022-11-28T03:57:00.770Z,1003.10
2022-11-28T03:58:00.777Z,1003.11
2022-11-28T03:59:00.738Z,1003.09
2022-11-28T04:00:00.765Z,1003.10
2022-11-28T04:01:00.760Z,1003.14
2022-11-28T04:02:00.731Z,1003.15
2022-11-28T04:03:00.762Z,1003.15
2022-11-28T04:04:00.709Z,1003.16
2022-11-28T04:05:00.692Z,1003.14
2022-11-28T04:06:00.690Z,1003.16
2022-11-28T04:07:00.652Z,1003.18
2022-11-28T04:08:00.721Z,1003.17
2022-11-28T04:09:00.636Z,1003.19
2022-11-28T04:10:00.642Z,1003.19
2022-11-28T04:11:00.648Z,1003.18
2022-11-28T04:12:00.602Z,1003.18
2022-11-28T04:13:00.613Z,1003.19
2022-11-28T04:14:00.583Z,1003.21
2022-11-28T04:15:00.591Z,1003.22
2022-11-28T04:16:00.648Z,1003.23
2022-11-28T04:17:00.646Z,1003.24
2022-11-28T04:18:00.548Z,1003.21
2022-11-28T04:19:00.550Z,1003.21
2022-11-28T04:20:00.523Z,1003.22
2022-11-28T04:21:00.533Z,1003.20
2022-11-28T04:22:00.510Z,1003.21
2022-11-28T04:23:00.515Z,1003.22
2022-11-28T04:24:00.476Z,1003.23
2022-11-28T04:25:00.484Z,1003.20
2022-11-28T04:26:00.469Z,1003.23
2022-11-28T04:27:00.501Z,1003.22
2022-11-28T04:28:00.443Z,1003.19
2022-11-28T04:29:00.449Z,1003.13
2022-11-28T04:30:00.412Z,1003.12
2022-11-28T04:31:00.423Z,1003.12
2022-11-28T04:32:00.405Z,1003.10
2022-11-28T04:33:00.414Z,1003.10
2022-11-28T04:34:00.365Z,1003.10
2022-11-28T04:35:00.379Z,1003.10
2022-11-28T04:36:00.351Z,1003.12
2022-11-28T04:37:00.355Z,1003.13
2022-11-28T04:38:00.363Z,1003.13
2022-11-28T04:39:00.342Z,1003.14
2022-11-28T04:40:00.306Z,1003.15
2022-11-28T04:41:00.334Z,1003.18
2022-11-28T04:42:00.307Z,1003.26
2022-11-28T04:43:00.296Z,1003.32
2022-11-28T04:44:00.278Z,1003.30
2022-11-28T04:45:00.275Z,1003.32
2022-11-28T04:46:00.329Z,1003.35
2022-11-28T04:47:00.268Z,1003.36
2022-11-28T04:48:00.216Z,1003.36
2022-11-28T04:49:00.254Z,1003.32
2022-11-28T04:50:00.201Z,1003.28
2022-11-28T04:51:00.221Z,1003.30
2022-11-28T04:52:00.180Z,1003.27
2022-11-28T04:53:00.201Z,1003.29
2022-11-28T04:54:00.165Z,1003.30
2022-11-28T04:55:00.184Z,1003.34
2022-11-28T04:56:00.136Z,1003.33
2022-11-28T04:57:00.149Z,1003.33
2022-11-28T04:58:00.112Z,1003.39
2022-11-28T04:59:00.135Z,1003.40
2022-11-28T05:00:00.111Z,1003.43
2022-11-28T05:01:00.197Z,1003.43
2022-11-28T05:02:00.125Z,1003.43
2022-11-28T05:03:00.085Z,1003.44
2022-11-28T05:04:00.058Z,1003.42
2022-11-28T05:05:00.070Z,1003.38
2022-11-28T05:06:00.052Z,1003.37
2022-11-28T05:07:00.042Z,1003.37
2022-11-28T05:08:00.054Z,1003.39
2022-11-28T05:09:00.022Z,1003.35
2022-11-28T05:09:59.990Z,1003.33
2022-11-28T05:11:00.017Z,1003.29
2022-11-28T05:11:59.975Z,1003.29
2022-11-28T05:12:59.975Z,1003.28
2022-11-28T05:13:59.954Z,1003.31
2022-11-28T05:14:59.939Z,1003.31
2022-11-28T05:15:59.998Z,1003.31
2022-11-28T05:16:59.929Z,1003.32
2022-11-28T05:17:59.935Z,1003.30
2022-11-28T05:18:59.900Z,1003.33
2022-11-28T05:19:59.903Z,1003.35
2022-11-28T05:20:59.871Z,1003.36
2022-11-28T05:21:59.916Z,1003.38
2022-11-28T05:22:59.850Z,1003.41
2022-11-28T05:23:59.865Z,1003.44
2022-11-28T05:24:59.833Z,1003.46
2022-11-28T05:25:59.840Z,1003.50
2022-11-28T05:26:59.813Z,1003.53
2022-11-28T05:27:59.835Z,1003.51
2022-11-28T05:28:59.790Z,1003.52
2022-11-28T05:29:59.804Z,1003.54
2022-11-28T05:30:59.773Z,1003.54
2022-11-28T05:31:59.848Z,1003.52
2022-11-28T05:32:59.786Z,1003.53
2022-11-28T05:33:59.756Z,1003.51
2022-11-28T05:34:59.729Z,1003.48
2022-11-28T05:35:59.736Z,1003.48
2022-11-28T05:36:59.706Z,1003.46
2022-11-28T05:37:59.719Z,1003.48
2022-11-28T05:38:59.700Z,1003.51
2022-11-28T05:39:59.692Z,1003.52
2022-11-28T05:40:59.660Z,1003.51
2022-11-28T05:41:59.673Z,1003.51
2022-11-28T05:42:59.638Z,1003.52
2022-11-28T05:43:59.676Z,1003.50
2022-11-28T05:44:59.648Z,1003.48
2022-11-28T05:45:59.715Z,1003.48
2022-11-28T05:46:59.611Z,1003.50
2022-11-28T05:47:59.623Z,1003.53
2022-11-28T05:48:59.580Z,1003.53
2022-11-28T05:49:59.605Z,1003.56
2022-11-28T05:50:59.554Z,1003.56
2022-11-28T05:51:59.584Z,1003.54
2022-11-28T05:52:59.571Z,1003.54
2022-11-28T05:53:59.564Z,1003.52
2022-11-28T05:54:59.537Z,1003.50
2022-11-28T05:55:59.530Z,1003.48
2022-11-28T05:56:59.493Z,1003.46
2022-11-28T05:57:59.520Z,1003.45
2022-11-28T05:58:59.470Z,1003.44
2022-11-28T05:59:59.487Z,1003.42
2022-11-28T06:00:59.462Z,1003.42
2022-11-28T06:01:59.551Z,1003.39
2022-11-28T06:03:01.474Z,1003.40
2022-11-28T06:03:59.440Z,1003.37
2022-11-28T06:05:04.278Z,1003.37
2022-11-28T06:05:59.447Z,1003.37
2022-11-28T06:06:59.387Z,1003.35
2022-11-28T06:07:59.439Z,1003.32
2022-11-28T06:08:59.370Z,1003.30
2022-11-28T06:09:59.373Z,1003.29
2022-11-28T06:10:59.343Z,1003.28
2022-11-28T06:11:59.372Z,1003.28
2022-11-28T06:12:59.324Z,1003.29
2022-11-28T06:13:59.332Z,1003.31
2022-11-28T06:14:59.307Z,1003.36
2022-11-28T06:15:59.322Z,1003.41
2022-11-28T06:16:59.396Z,1003.39
2022-11-28T06:17:59.292Z,1003.39
2022-11-28T06:18:59.264Z,1003.35
2022-11-28T06:19:59.294Z,1003.31
2022-11-28T06:20:59.241Z,1003.25
2022-11-28T06:21:59.249Z,1003.25
2022-11-28T06:22:59.231Z,1003.30
2022-11-28T06:23:59.231Z,1003.33
2022-11-28T06:24:59.196Z,1003.31
2022-11-28T06:25:59.207Z,1003.30
2022-11-28T06:26:59.180Z,1003.33
2022-11-28T06:27:59.221Z,1003.33
2022-11-28T06:28:59.157Z,1003.34
2022-11-28T06:29:59.170Z,1003.37
2022-11-28T06:30:59.139Z,1003.40
2022-11-28T06:31:59.220Z,1003.41
2022-11-28T06:32:59.113Z,1003.43
2022-11-28T06:33:59.151Z,1003.42
2022-11-28T06:34:59.101Z,1003.40
2022-11-28T06:35:59.113Z,1003.40
2022-11-28T06:36:59.082Z,1003.39
2022-11-28T06:37:59.100Z,1003.40
2022-11-28T06:38:59.093Z,1003.41
2022-11-28T06:39:59.082Z,1003.45
2022-11-28T06:40:59.034Z,1003.47
2022-11-28T06:41:59.042Z,1003.47
2022-11-28T06:42:59.022Z,1003.50
2022-11-28T06:43:59.029Z,1003.55
2022-11-28T06:44:59.000Z,1003.64
2022-11-28T06:45:59.134Z,1003.68
2022-11-28T06:46:59.001Z,1003.68
2022-11-28T06:47:58.978Z,1003.68
2022-11-28T06:48:58.947Z,1003.66
2022-11-28T06:49:58.975Z,1003.66
2022-11-28T06:50:58.925Z,1003.69
2022-11-28T06:51:58.945Z,1003.70
2022-11-28T06:52:58.902Z,1003.68
2022-11-28T06:53:58.927Z,1003.65
2022-11-28T06:54:58.883Z,1003.64
2022-11-28T06:55:58.926Z,1003.62
2022-11-28T06:56:58.864Z,1003.63
2022-11-28T06:57:58.880Z,1003.64
2022-11-28T06:58:58.842Z,1003.67
2022-11-28T06:59:58.862Z,1003.67
2022-11-28T07:00:58.901Z,1003.63
2022-11-28T07:02:02.837Z,1003.60
2022-11-28T07:02:58.830Z,1003.58
2022-11-28T07:03:58.810Z,1003.57
2022-11-28T07:04:58.779Z,1003.57
2022-11-28T07:05:58.793Z,1003.57
2022-11-28T07:06:58.793Z,1003.56
2022-11-28T07:07:58.870Z,1003.56
2022-11-28T07:08:58.734Z,1003.58
2022-11-28T07:09:58.748Z,1003.56
2022-11-28T07:10:58.710Z,1003.59
2022-11-28T07:11:58.753Z,1003.59
2022-11-28T07:13:02.490Z,1003.59
2022-11-28T07:13:58.716Z,1003.58
2022-11-28T07:14:58.674Z,1003.56
2022-11-28T07:15:58.681Z,1003.54
2022-11-28T07:16:58.695Z,1003.55
2022-11-28T07:17:58.683Z,1003.55
2022-11-28T07:18:58.626Z,1003.57
2022-11-28T07:19:58.640Z,1003.56
2022-11-28T07:20:58.617Z,1003.55
2022-11-28T07:21:58.621Z,1003.53
2022-11-28T07:22:58.691Z,1003.51
2022-11-28T07:23:58.596Z,1003.51
2022-11-28T07:24:58.567Z,1003.53
2022-11-28T07:25:58.576Z,1003.55
2022-11-28T07:26:58.556Z,1003.54
2022-11-28T07:27:58.556Z,1003.55
2022-11-28T07:28:58.538Z,1003.58
2022-11-28T07:29:58.537Z,1003.56
2022-11-28T07:30:58.510Z,1003.54
2022-11-28T07:31:58.574Z,1003.55
2022-11-28T07:32:58.491Z,1003.53
2022-11-28T07:33:58.525Z,1003.54
2022-11-28T07:34:58.458Z,1003.56
2022-11-28T07:35:58.472Z,1003.58
2022-11-28T07:36:58.438Z,1003.59
2022-11-28T07:37:58.455Z,1003.60
2022-11-28T07:38:58.430Z,1003.61
2022-11-28T07:39:58.448Z,1003.61
2022-11-28T07:40:58.403Z,1003.61
2022-11-28T07:41:58.421Z,1003.63
2022-11-28T07:42:58.387Z,1003.63
2022-11-28T07:43:58.425Z,1003.62
2022-11-28T07:44:58.395Z,1003.61
2022-11-28T07:46:01.362Z,1003.61
2022-11-28T07:46:58.484Z,1003.61
2022-11-28T07:47:58.352Z,1003.63
2022-11-28T07:48:58.317Z,1003.62
2022-11-28T07:49:58.336Z,1003.62
2022-11-28T07:50:58.313Z,1003.65
2022-11-28T07:51:58.309Z,1003.70
2022-11-28T07:53:00.727Z,1003.70
2022-11-28T07:53:58.302Z,1003.68
2022-11-28T07:54:58.299Z,1003.70
2022-11-28T07:55:58.293Z,1003.67
2022-11-28T07:57:12.602Z,1003.69
2022-11-28T07:57:58.283Z,1003.74
2022-11-28T07:59:02.057Z,1003.73
2022-11-28T07:59:58.224Z,1003.76
2022-11-28T08:00:58.189Z,1003.77
2022-11-28T08:01:58.268Z,1003.77
2022-11-28T08:02:58.187Z,1003.76
2022-11-28T08:03:58.244Z,1003.75
2022-11-28T08:04:58.166Z,1003.74
2022-11-28T08:06:01.537Z,1003.74
2022-11-28T08:06:58.166Z,1003.75
2022-11-28T08:07:58.230Z,1003.75
2022-11-28T08:08:58.105Z,1003.77
2022-11-28T08:09:58.123Z,1003.76
2022-11-28T08:10:58.083Z,1003.79
2022-11-28T08:11:58.111Z,1003.79
2022-11-28T08:12:58.090Z,1003.80
2022-11-28T08:13:58.198Z,1003.82
2022-11-28T08:14:58.053Z,1003.85
2022-11-28T08:15:58.067Z,1003.87
2022-11-28T08:16:58.108Z,1003.87
2022-11-28T08:17:58.069Z,1003.87
2022-11-28T08:18:58.018Z,1003.86
2022-11-28T08:19:58.011Z,1003.85
2022-11-28T08:20:57.993Z,1003.84
2022-11-28T08:21:57.998Z,1003.82
2022-11-28T08:22:57.956Z,1003.82
2022-11-28T08:23:57.985Z,1003.83
2022-11-28T08:24:57.941Z,1003.83
2022-11-28T08:25:57.980Z,1003.82
2022-11-28T08:26:57.916Z,1003.82
2022-11-28T08:27:57.941Z,1003.83
2022-11-28T08:28:57.973Z,1003.81
2022-11-28T08:29:57.933Z,1003.81
2022-11-28T08:30:57.932Z,1003.77
2022-11-28T08:31:57.906Z,1003.75
2022-11-28T08:32:57.899Z,1003.74
2022-11-28T08:33:57.887Z,1003.72
2022-11-28T08:34:57.891Z,1003.70
2022-11-28T08:35:57.861Z,1003.68
2022-11-28T08:36:57.825Z,1003.70
2022-11-28T08:38:01.839Z,1003.69
2022-11-28T08:39:16.617Z,1003.69
2022-11-28T08:39:57.862Z,1003.69
2022-11-28T08:40:57.762Z,1003.66
2022-11-28T08:41:57.843Z,1003.67
2022-11-28T08:42:57.771Z,1003.64
2022-11-28T08:43:57.763Z,1003.64
2022-11-28T08:44:57.732Z,1003.62
2022-11-28T08:45:57.823Z,1003.61
2022-11-28T08:46:57.718Z,1003.61
2022-11-28T08:47:57.716Z,1003.59
2022-11-28T08:48:57.702Z,1003.59
2022-11-28T08:49:57.690Z,1003.58
2022-11-28T08:50:57.689Z,1003.59
2022-11-28T08:51:57.668Z,1003.59
2022-11-28T08:53:01.744Z,1003.60
2022-11-28T08:53:59.582Z,1003.57
2022-11-28T08:54:57.619Z,1003.60
2022-11-28T08:55:57.628Z,1003.59
2022-11-28T08:56:57.612Z,1003.56
2022-11-28T08:57:57.609Z,1003.57
2022-11-28T08:58:57.575Z,1003.57
2022-11-28T08:59:57.591Z,1003.55
2022-11-28T09:00:57.583Z,1003.57
2022-11-28T09:01:57.586Z,1003.60
2022-11-28T09:02:57.528Z,1003.63
2022-11-28T09:03:57.630Z,1003.62
2022-11-28T09:04:57.520Z,1003.61
2022-11-28T09:05:57.523Z,1003.61
2022-11-28T09:06:57.500Z,1003.61
2022-11-28T09:07:57.580Z,1003.59
2022-11-28T09:08:57.497Z,1003.59
2022-11-28T09:09:57.505Z,1003.59
2022-11-28T09:10:57.448Z,1003.60
2022-11-28T09:11:57.468Z,1003.62
2022-11-28T09:12:57.455Z,1003.63
2022-11-28T09:13:57.444Z,1003.63
2022-11-28T09:14:57.415Z,1003.60
2022-11-28T09:15:57.435Z,1003.60
2022-11-28T09:16:57.422Z,1003.59
2022-11-28T09:17:57.400Z,1003.57
2022-11-28T09:18:57.384Z,1003.58
2022-11-28T09:19:57.378Z,1003.58
2022-11-28T09:20:57.342Z,1003.60
2022-11-28T09:21:58.021Z,1003.61
2022-11-28T09:22:57.326Z,1003.61
2022-11-28T09:23:57.365Z,1003.62
2022-11-28T09:24:57.304Z,1003.64
2022-11-28T09:25:57.309Z,1003.62
2022-11-28T09:26:57.290Z,1003.65
2022-11-28T09:27:57.300Z,1003.67
2022-11-28T09:28:57.265Z,1003.71
2022-11-28T09:29:57.289Z,1003.73
2022-11-28T09:30:57.291Z,1003.77
2022-11-28T09:31:57.240Z,1003.77
2022-11-28T09:32:57.248Z,1003.79
2022-11-28T09:33:57.232Z,1003.82
2022-11-28T09:34:57.262Z,1003.82
2022-11-28T09:35:57.194Z,1003.81
2022-11-28T09:37:00.864Z,1003.82
2022-11-28T09:37:57.174Z,1003.83
2022-11-28T09:38:57.205Z,1003.82
2022-11-28T09:40:12.734Z,1003.83
2022-11-28T09:40:57.180Z,1003.83
2022-11-28T09:41:57.125Z,1003.84
2022-11-28T09:42:57.141Z,1003.83
2022-11-28T09:43:57.099Z,1003.84
2022-11-28T09:44:57.111Z,1003.83
2022-11-28T09:45:57.197Z,1003.84
2022-11-28T09:46:57.096Z,1003.84
2022-11-28T09:47:57.058Z,1003.85
2022-11-28T09:48:57.074Z,1003.86
2022-11-28T09:49:57.051Z,1003.86
2022-11-28T09:50:57.069Z,1003.86
2022-11-28T09:51:57.042Z,1003.87
2022-11-28T09:52:57.057Z,1003.85
2022-11-28T09:53:57.003Z,1003.85
2022-11-28T09:54:57.039Z,1003.84
2022-11-28T09:55:56.973Z,1003.84
2022-11-28T09:56:57.009Z,1003.82
2022-11-28T09:57:56.950Z,1003.82
2022-11-28T09:58:56.964Z,1003.82
2022-11-28T09:59:56.934Z,1003.82
2022-11-28T10:00:56.944Z,1003.82
2022-11-28T10:01:56.921Z,1003.82
2022-11-28T10:02:56.941Z,1003.81
2022-11-28T10:03:56.948Z,1003.82
2022-11-28T10:04:56.980Z,1003.82
2022-11-28T10:05:56.879Z,1003.81
2022-11-28T10:06:56.883Z,1003.80
2022-11-28T10:07:56.947Z,1003.80
2022-11-28T10:08:56.862Z,1003.80
2022-11-28T10:09:56.829Z,1003.80
2022-11-28T10:10:56.835Z,1003.79
2022-11-28T10:11:56.809Z,1003.79
2022-11-28T10:12:56.817Z,1003.79
2022-11-28T10:14:12.237Z,1003.79
2022-11-28T10:14:56.803Z,1003.79
2022-11-28T10:15:56.759Z,1003.79
2022-11-28T10:16:56.842Z,1003.80
2022-11-28T10:17:56.749Z,1003.79
2022-11-28T10:18:56.781Z,1003.80
2022-11-28T10:19:56.897Z,1003.80
2022-11-28T10:20:56.734Z,1003.81
2022-11-28T10:21:59.415Z,1003.80
2022-11-28T10:22:56.712Z,1003.80
2022-11-28T10:23:56.681Z,1003.79
2022-11-28T10:24:56.715Z,1003.79
2022-11-28T10:25:56.656Z,1003.80
2022-11-28T10:26:56.678Z,1003.79
2022-11-28T10:27:56.635Z,1003.79
2022-11-28T10:28:56.652Z,1003.79
2022-11-28T10:29:56.644Z,1003.78
2022-11-28T10:30:56.681Z,1003.77
2022-11-28T10:31:56.592Z,1003.76
2022-11-28T10:32:56.619Z,1003.76
2022-11-28T10:33:56.579Z,1003.75
2022-11-28T10:34:56.587Z,1003.76
2022-11-28T10:35:56.571Z,1003.76
2022-11-28T10:36:56.568Z,1003.76
2022-11-28T10:37:56.536Z,1003.76
2022-11-28T10:38:56.544Z,1003.77
2022-11-28T10:39:56.529Z,1003.78
2022-11-28T10:40:56.580Z,1003.81
2022-11-28T10:41:56.503Z,1003.82
2022-11-28T10:42:56.509Z,1003.82
2022-11-28T10:43:56.465Z,1003.82
2022-11-28T10:44:56.484Z,1003.83
2022-11-28T10:45:56.514Z,1003.83
2022-11-28T10:46:56.505Z,1003.83
2022-11-28T10:47:56.468Z,1003.84
2022-11-28T10:48:56.442Z,1003.85
2022-11-28T10:49:56.419Z,1003.85
2022-11-28T10:50:56.434Z,1003.86
2022-11-28T10:51:56.417Z,1003.86
2022-11-28T10:52:56.418Z,1003.85
2022-11-28T10:53:56.381Z,1003.84
2022-11-28T10:54:56.384Z,1003.84
2022-11-28T10:55:56.366Z,1003.84
2022-11-28T10:56:56.379Z,1003.84
2022-11-28T10:57:56.351Z,1003.83
2022-11-28T10:58:56.332Z,1003.85
2022-11-28T10:59:56.342Z,1003.84
2022-11-28T11:00:56.378Z,1003.84
2022-11-28T11:01:56.394Z,1003.83
2022-11-28T11:02:56.331Z,1003.83
2022-11-28T11:03:56.374Z,1003.82
2022-11-28T11:04:56.321Z,1003.82
2022-11-28T11:05:56.239Z,1003.86
2022-11-28T11:07:08.267Z,1003.84
2022-11-28T11:07:56.380Z,1003.85
2022-11-28T11:08:56.263Z,1003.87
2022-11-28T11:09:56.213Z,1003.86
2022-11-28T11:10:56.239Z,1003.86
2022-11-28T11:11:56.178Z,1003.86
2022-11-28T11:12:56.196Z,1003.86
2022-11-28T11:13:56.152Z,1003.84
2022-11-28T11:14:56.199Z,1003.84
2022-11-28T11:15:56.191Z,1003.83
2022-11-28T11:16:56.142Z,1003.83
2022-11-28T11:17:56.105Z,1003.84
2022-11-28T11:18:56.115Z,1003.85
2022-11-28T11:19:56.085Z,1003.85
2022-11-28T11:20:56.109Z,1003.85
2022-11-28T11:21:56.073Z,1003.85
2022-11-28T11:22:56.074Z,1003.86
2022-11-28T11:23:56.047Z,1003.86
2022-11-28T11:24:56.056Z,1003.86
2022-11-28T11:25:56.020Z,1003.85
2022-11-28T11:26:56.059Z,1003.84
2022-11-28T11:27:56.007Z,1003.83
2022-11-28T11:28:56.012Z,1003.82
2022-11-28T11:29:55.982Z,1003.83
2022-11-28T11:30:56.049Z,1003.83
2022-11-28T11:31:55.960Z,1003.83
2022-11-28T11:32:56.000Z,1003.84
2022-11-28T11:33:55.943Z,1003.84
2022-11-28T11:34:55.951Z,1003.86
2022-11-28T11:35:55.916Z,1003.86
2022-11-28T11:36:55.927Z,1003.87
2022-11-28T11:37:55.901Z,1003.87
2022-11-28T11:38:56.136Z,1003.86
2022-11-28T11:39:55.955Z,1003.87
2022-11-28T11:40:55.889Z,1003.86
2022-11-28T11:41:55.850Z,1003.86
2022-11-28T11:42:55.861Z,1003.86
2022-11-28T11:43:55.844Z,1003.87
2022-11-28T11:44:55.867Z,1003.86
2022-11-28T11:45:55.835Z,1003.87
2022-11-28T11:46:55.918Z,1003.88
2022-11-28T11:47:55.788Z,1003.87
2022-11-28T11:48:55.807Z,1003.88
2022-11-28T11:49:55.771Z,1003.89
2022-11-28T11:50:55.809Z,1003.88
2022-11-28T11:51:55.746Z,1003.88
2022-11-28T11:52:55.764Z,1003.87
2022-11-28T11:53:55.723Z,1003.87
2022-11-28T11:54:55.767Z,1003.87
2022-11-28T11:55:55.711Z,1003.88
2022-11-28T11:57:11.183Z,1003.89
2022-11-28T11:57:55.700Z,1003.88
2022-11-28T11:58:55.700Z,1003.86
2022-11-28T11:59:55.758Z,1003.85
2022-11-28T12:00:55.678Z,1003.83
2022-11-28T12:01:55.643Z,1003.82
2022-11-28T12:02:55.839Z,1003.82
2022-11-28T12:03:55.689Z,1003.82
2022-11-28T12:04:55.838Z,1003.82